Pagina principale
METAR-TAF:

METAR-TAF

Aeroporti :

Aeroporto di Tunisi-Cartagine

Tunisi, Tunisia

latitudine: 36-50N, longitudine: 010-14E, altezza: 3 m

Osservazione

Il bollettino è stato emesso 24 minuti fa, alle 03:00 UTC
Vento 6 kt da est/sud-est, variando fra est e sud/sud-est
Temperature 22°C
Umidità 69%
Pressione 1014 hPa
Visibilità 10 km o più
Poco nuvoloso ad un'altezza di 2600 ft

METAR: DTTA 270300Z 12006KT 090V150 9999 FEW026 22/16 Q1014 NOSIG

Ora: 04:24 (03:24 UTC)

Previsione

Il bollettino è stato emesso 2 ore e 40 minuti fa, alle 00:44 UTC
Previsione valida dal 27 alle 00 UTC al 27 alle 24 UTC
Vento 6 kt da est/sud-est
Visibilità 10 km o più
Poco nuvoloso ad un'altezza di 2600 ft

TAF: DTTA 270044Z 2700/2724 12006KT 9999 FEW026

Osservazioni e previsioni meteorologiche di più di 4000 aeroporti (messaggi METAR e TAF).

Le stazioni disponibili sono rappresentate dai dischi gialli e rossi sulla carta.

Puntare il mouse per vedere il nome della stazione.

Clicca sopra per visualizzare le osservazioni e previsioni meteorologiche.

Per cambiare la mappa : fare clic sui pulsanti verdi con una croce nera per ingrandire, il pulsante verde con un trattino per diminuire, o sulla freccia verde per le mappe adiacenti.


METAR-TAF: